sensor_id;sensor_type;location;lat;lon;timestamp;P1;durP1;ratioP1;P2;durP2;ratioP2
74894;SDS011;63447;49.446;8.666;2024-02-21T00:00:53;14.55;;;4.88;;
74894;SDS011;63447;49.446;8.666;2024-02-21T00:03:22;13.68;;;4.70;;
74894;SDS011;63447;49.446;8.666;2024-02-21T00:05:47;10.93;;;4.55;;
74894;SDS011;63447;49.446;8.666;2024-02-21T00:08:13;13.07;;;4.75;;
74894;SDS011;63447;49.446;8.666;2024-02-21T00:10:38;14.40;;;4.85;;
74894;SDS011;63447;49.446;8.666;2024-02-21T00:13:04;10.57;;;4.43;;
74894;SDS011;63447;49.446;8.666;2024-02-21T00:15:29;11.50;;;4.25;;
74894;SDS011;63447;49.446;8.666;2024-02-21T00:17:57;14.63;;;5.00;;
74894;SDS011;63447;49.446;8.666;2024-02-21T00:20:22;13.90;;;4.60;;
74894;SDS011;63447;49.446;8.666;2024-02-21T00:22:50;12.83;;;4.03;;
74894;SDS011;63447;49.446;8.666;2024-02-21T00:25:15;14.85;;;4.55;;
74894;SDS011;63447;49.446;8.666;2024-02-21T00:27:43;11.80;;;4.40;;
74894;SDS011;63447;49.446;8.666;2024-02-21T00:30:11;12.15;;;4.82;;
74894;SDS011;63447;49.446;8.666;2024-02-21T00:32:36;12.48;;;3.90;;
74894;SDS011;63447;49.446;8.666;2024-02-21T00:35:05;14.13;;;4.60;;
74894;SDS011;63447;49.446;8.666;2024-02-21T00:37:31;13.20;;;4.05;;
74894;SDS011;63447;49.446;8.666;2024-02-21T00:39:56;14.82;;;3.88;;
74894;SDS011;63447;49.446;8.666;2024-02-21T00:42:24;12.37;;;4.27;;
74894;SDS011;63447;49.446;8.666;2024-02-21T00:44:52;13.20;;;3.95;;
74894;SDS011;63447;49.446;8.666;2024-02-21T00:47:17;15.60;;;4.60;;
74894;SDS011;63447;49.446;8.666;2024-02-21T00:49:43;16.37;;;4.43;;
74894;SDS011;63447;49.446;8.666;2024-02-21T00:52:08;14.73;;;4.23;;
74894;SDS011;63447;49.446;8.666;2024-02-21T00:54:33;11.97;;;4.07;;
74894;SDS011;63447;49.446;8.666;2024-02-21T00:56:59;14.30;;;4.37;;
74894;SDS011;63447;49.446;8.666;2024-02-21T00:59:24;13.33;;;4.40;;
74894;SDS011;63447;49.446;8.666;2024-02-21T01:01:49;14.07;;;4.63;;
74894;SDS011;63447;49.446;8.666;2024-02-21T01:04:17;14.13;;;4.47;;
74894;SDS011;63447;49.446;8.666;2024-02-21T01:06:42;12.53;;;4.13;;
74894;SDS011;63447;49.446;8.666;2024-02-21T01:09:09;13.80;;;4.13;;
74894;SDS011;63447;49.446;8.666;2024-02-21T01:11:35;15.88;;;5.30;;
74894;SDS011;63447;49.446;8.666;2024-02-21T01:14:01;12.60;;;4.57;;
74894;SDS011;63447;49.446;8.666;2024-02-21T01:16:26;13.10;;;4.07;;
74894;SDS011;63447;49.446;8.666;2024-02-21T01:18:53;12.52;;;4.38;;
74894;SDS011;63447;49.446;8.666;2024-02-21T01:21:19;10.75;;;4.25;;
74894;SDS011;63447;49.446;8.666;2024-02-21T01:23:44;14.50;;;4.17;;
74894;SDS011;63447;49.446;8.666;2024-02-21T01:26:10;13.20;;;4.03;;
74894;SDS011;63447;49.446;8.666;2024-02-21T01:28:40;11.57;;;4.07;;
74894;SDS011;63447;49.446;8.666;2024-02-21T01:31:08;12.80;;;4.07;;
74894;SDS011;63447;49.446;8.666;2024-02-21T01:33:40;8.95;;;4.18;;
74894;SDS011;63447;49.446;8.666;2024-02-21T01:36:08;13.68;;;4.32;;
74894;SDS011;63447;49.446;8.666;2024-02-21T01:38:34;11.65;;;4.65;;
74894;SDS011;63447;49.446;8.666;2024-02-21T01:40:59;10.82;;;4.15;;
74894;SDS011;63447;49.446;8.666;2024-02-21T01:43:25;13.27;;;3.92;;
74894;SDS011;63447;49.446;8.666;2024-02-21T01:45:50;13.27;;;4.03;;
74894;SDS011;63447;49.446;8.666;2024-02-21T01:48:18;10.52;;;4.28;;
74894;SDS011;63447;49.446;8.666;2024-02-21T01:50:47;9.57;;;3.60;;
74894;SDS011;63447;49.446;8.666;2024-02-21T01:53:14;12.77;;;4.10;;
74894;SDS011;63447;49.446;8.666;2024-02-21T01:55:44;12.20;;;4.30;;
74894;SDS011;63447;49.446;8.666;2024-02-21T01:58:11;12.02;;;4.38;;
74894;SDS011;63447;49.446;8.666;2024-02-21T02:00:40;14.13;;;5.03;;
74894;SDS011;63447;49.446;8.666;2024-02-21T02:03:11;12.50;;;4.18;;
74894;SDS011;63447;49.446;8.666;2024-02-21T02:05:46;11.20;;;3.85;;
74894;SDS011;63447;49.446;8.666;2024-02-21T02:08:19;14.38;;;4.30;;
74894;SDS011;63447;49.446;8.666;2024-02-21T02:10:44;11.23;;;3.63;;
74894;SDS011;63447;49.446;8.666;2024-02-21T02:13:18;14.43;;;4.90;;
74894;SDS011;63447;49.446;8.666;2024-02-21T02:15:44;12.52;;;4.18;;
74894;SDS011;63447;49.446;8.666;2024-02-21T02:18:13;12.07;;;4.57;;
74894;SDS011;63447;49.446;8.666;2024-02-21T02:20:39;13.20;;;4.22;;
74894;SDS011;63447;49.446;8.666;2024-02-21T02:23:12;15.25;;;4.60;;
74894;SDS011;63447;49.446;8.666;2024-02-21T02:25:45;11.05;;;4.20;;
74894;SDS011;63447;49.446;8.666;2024-02-21T02:28:14;9.85;;;3.95;;
74894;SDS011;63447;49.446;8.666;2024-02-21T02:30:40;14.00;;;4.00;;
74894;SDS011;63447;49.446;8.666;2024-02-21T02:33:05;9.93;;;4.35;;
74894;SDS011;63447;49.446;8.666;2024-02-21T02:35:33;11.80;;;3.80;;
74894;SDS011;63447;49.446;8.666;2024-02-21T02:38:01;16.83;;;4.80;;
74894;SDS011;63447;49.446;8.666;2024-02-21T02:40:27;11.38;;;4.43;;
74894;SDS011;63447;49.446;8.666;2024-02-21T02:42:55;10.82;;;4.00;;
74894;SDS011;63447;49.446;8.666;2024-02-21T02:45:21;9.77;;;3.88;;
74894;SDS011;63447;49.446;8.666;2024-02-21T02:47:51;12.65;;;4.55;;
74894;SDS011;63447;49.446;8.666;2024-02-21T02:50:16;10.82;;;4.35;;
74894;SDS011;63447;49.446;8.666;2024-02-21T02:52:42;10.13;;;4.47;;
74894;SDS011;63447;49.446;8.666;2024-02-21T02:55:07;9.20;;;4.28;;
74894;SDS011;63447;49.446;8.666;2024-02-21T02:57:33;16.00;;;4.65;;
74894;SDS011;63447;49.446;8.666;2024-02-21T02:59:58;13.52;;;4.78;;
74894;SDS011;63447;49.446;8.666;2024-02-21T03:02:26;16.00;;;5.05;;
74894;SDS011;63447;49.446;8.666;2024-02-21T03:04:55;12.15;;;4.47;;
74894;SDS011;63447;49.446;8.666;2024-02-21T03:07:20;13.75;;;4.50;;
74894;SDS011;63447;49.446;8.666;2024-02-21T03:09:45;12.43;;;4.13;;
74894;SDS011;63447;49.446;8.666;2024-02-21T03:12:13;14.70;;;5.17;;
74894;SDS011;63447;49.446;8.666;2024-02-21T03:14:49;12.63;;;4.15;;
74894;SDS011;63447;49.446;8.666;2024-02-21T03:17:15;9.93;;;4.28;;
74894;SDS011;63447;49.446;8.666;2024-02-21T03:19:43;11.80;;;4.35;;
74894;SDS011;63447;49.446;8.666;2024-02-21T03:22:08;11.98;;;4.03;;
74894;SDS011;63447;49.446;8.666;2024-02-21T03:24:36;13.43;;;4.05;;
74894;SDS011;63447;49.446;8.666;2024-02-21T03:27:01;11.05;;;4.15;;
74894;SDS011;63447;49.446;8.666;2024-02-21T03:29:27;12.15;;;4.75;;
74894;SDS011;63447;49.446;8.666;2024-02-21T03:31:52;11.80;;;4.38;;
74894;SDS011;63447;49.446;8.666;2024-02-21T03:34:17;13.33;;;4.20;;
74894;SDS011;63447;49.446;8.666;2024-02-21T03:36:43;13.10;;;4.20;;
74894;SDS011;63447;49.446;8.666;2024-02-21T03:39:13;13.13;;;4.57;;
74894;SDS011;63447;49.446;8.666;2024-02-21T03:41:40;13.90;;;4.70;;
74894;SDS011;63447;49.446;8.666;2024-02-21T03:44:06;13.85;;;4.97;;
74894;SDS011;63447;49.446;8.666;2024-02-21T03:46:33;14.07;;;4.50;;
74894;SDS011;63447;49.446;8.666;2024-02-21T03:49:01;12.00;;;4.47;;
74894;SDS011;63447;49.446;8.666;2024-02-21T03:51:26;10.43;;;4.07;;
74894;SDS011;63447;49.446;8.666;2024-02-21T03:53:54;13.20;;;4.15;;
74894;SDS011;63447;49.446;8.666;2024-02-21T03:56:19;8.95;;;4.05;;
74894;SDS011;63447;49.446;8.666;2024-02-21T03:58:44;11.70;;;4.57;;
74894;SDS011;63447;49.446;8.666;2024-02-21T04:01:14;12.55;;;4.00;;
74894;SDS011;63447;49.446;8.666;2024-02-21T04:03:40;12.77;;;4.20;;
74894;SDS011;63447;49.446;8.666;2024-02-21T04:06:05;11.32;;;4.18;;
74894;SDS011;63447;49.446;8.666;2024-02-21T04:08:31;13.68;;;4.50;;
74894;SDS011;63447;49.446;8.666;2024-02-21T04:10:56;11.67;;;4.30;;
74894;SDS011;63447;49.446;8.666;2024-02-21T04:13:21;15.40;;;4.28;;
74894;SDS011;63447;49.446;8.666;2024-02-21T04:15:50;13.85;;;3.92;;
74894;SDS011;63447;49.446;8.666;2024-02-21T04:18:16;12.43;;;3.90;;
74894;SDS011;63447;49.446;8.666;2024-02-21T04:20:41;13.30;;;4.33;;
74894;SDS011;63447;49.446;8.666;2024-02-21T04:23:06;13.98;;;4.00;;
74894;SDS011;63447;49.446;8.666;2024-02-21T04:25:32;15.40;;;4.10;;
74894;SDS011;63447;49.446;8.666;2024-02-21T04:27:57;9.77;;;3.90;;
74894;SDS011;63447;49.446;8.666;2024-02-21T04:30:22;12.63;;;3.57;;
74894;SDS011;63447;49.446;8.666;2024-02-21T04:32:48;11.38;;;3.88;;
74894;SDS011;63447;49.446;8.666;2024-02-21T04:35:13;16.27;;;4.30;;
74894;SDS011;63447;49.446;8.666;2024-02-21T04:37:38;14.40;;;4.22;;
74894;SDS011;63447;49.446;8.666;2024-02-21T04:40:04;12.23;;;3.57;;
74894;SDS011;63447;49.446;8.666;2024-02-21T04:42:30;13.07;;;4.65;;
74894;SDS011;63447;49.446;8.666;2024-02-21T04:44:55;13.33;;;3.80;;
74894;SDS011;63447;49.446;8.666;2024-02-21T04:47:23;12.40;;;3.97;;
74894;SDS011;63447;49.446;8.666;2024-02-21T04:49:51;12.80;;;4.50;;
74894;SDS011;63447;49.446;8.666;2024-02-21T04:52:17;14.57;;;4.03;;
74894;SDS011;63447;49.446;8.666;2024-02-21T04:54:42;10.02;;;3.83;;
74894;SDS011;63447;49.446;8.666;2024-02-21T04:57:07;14.17;;;4.43;;
74894;SDS011;63447;49.446;8.666;2024-02-21T04:59:35;12.82;;;4.40;;
74894;SDS011;63447;49.446;8.666;2024-02-21T05:02:01;10.93;;;4.00;;
74894;SDS011;63447;49.446;8.666;2024-02-21T05:04:27;12.98;;;4.40;;
74894;SDS011;63447;49.446;8.666;2024-02-21T05:06:52;9.70;;;3.92;;
74894;SDS011;63447;49.446;8.666;2024-02-21T05:09:20;13.75;;;4.18;;
74894;SDS011;63447;49.446;8.666;2024-02-21T05:11:47;12.77;;;4.10;;
74894;SDS011;63447;49.446;8.666;2024-02-21T05:14:13;14.13;;;3.97;;
74894;SDS011;63447;49.446;8.666;2024-02-21T05:16:38;13.15;;;4.28;;
74894;SDS011;63447;49.446;8.666;2024-02-21T05:19:04;11.55;;;4.05;;
74894;SDS011;63447;49.446;8.666;2024-02-21T05:21:30;10.90;;;4.00;;
74894;SDS011;63447;49.446;8.666;2024-02-21T05:23:55;13.07;;;4.10;;
74894;SDS011;63447;49.446;8.666;2024-02-21T05:26:21;10.93;;;3.78;;
74894;SDS011;63447;49.446;8.666;2024-02-21T05:28:48;11.25;;;3.90;;
74894;SDS011;63447;49.446;8.666;2024-02-21T05:31:14;13.98;;;4.07;;
74894;SDS011;63447;49.446;8.666;2024-02-21T05:33:45;12.85;;;4.07;;
74894;SDS011;63447;49.446;8.666;2024-02-21T05:36:13;12.68;;;4.22;;
74894;SDS011;63447;49.446;8.666;2024-02-21T05:38:39;11.70;;;4.47;;
74894;SDS011;63447;49.446;8.666;2024-02-21T05:41:04;13.77;;;4.03;;
74894;SDS011;63447;49.446;8.666;2024-02-21T05:43:30;10.95;;;3.72;;
74894;SDS011;63447;49.446;8.666;2024-02-21T05:45:55;14.07;;;3.97;;
74894;SDS011;63447;49.446;8.666;2024-02-21T05:48:24;11.77;;;3.80;;
74894;SDS011;63447;49.446;8.666;2024-02-21T05:50:50;11.95;;;4.00;;
74894;SDS011;63447;49.446;8.666;2024-02-21T05:53:18;12.48;;;3.83;;
74894;SDS011;63447;49.446;8.666;2024-02-21T05:55:43;13.82;;;4.07;;
74894;SDS011;63447;49.446;8.666;2024-02-21T05:58:09;11.05;;;3.85;;
74894;SDS011;63447;49.446;8.666;2024-02-21T06:00:38;10.52;;;3.70;;
74894;SDS011;63447;49.446;8.666;2024-02-21T06:03:06;9.63;;;3.70;;
74894;SDS011;63447;49.446;8.666;2024-02-21T06:05:36;10.27;;;3.97;;
74894;SDS011;63447;49.446;8.666;2024-02-21T06:08:02;9.93;;;4.22;;
74894;SDS011;63447;49.446;8.666;2024-02-21T06:10:28;11.48;;;3.88;;
74894;SDS011;63447;49.446;8.666;2024-02-21T06:12:53;9.70;;;4.00;;
74894;SDS011;63447;49.446;8.666;2024-02-21T06:15:19;13.20;;;3.70;;
74894;SDS011;63447;49.446;8.666;2024-02-21T06:17:46;9.65;;;3.80;;
74894;SDS011;63447;49.446;8.666;2024-02-21T06:20:12;11.60;;;4.10;;
74894;SDS011;63447;49.446;8.666;2024-02-21T06:22:37;8.90;;;3.80;;
74894;SDS011;63447;49.446;8.666;2024-02-21T06:25:02;10.50;;;4.50;;
74894;SDS011;63447;49.446;8.666;2024-02-21T06:27:30;12.35;;;4.45;;
74894;SDS011;63447;49.446;8.666;2024-02-21T06:29:55;12.75;;;4.18;;
74894;SDS011;63447;49.446;8.666;2024-02-21T06:32:23;10.88;;;3.88;;
74894;SDS011;63447;49.446;8.666;2024-02-21T06:34:49;12.20;;;4.03;;
74894;SDS011;63447;49.446;8.666;2024-02-21T06:37:16;12.23;;;3.85;;
74894;SDS011;63447;49.446;8.666;2024-02-21T06:39:41;14.83;;;4.00;;
74894;SDS011;63447;49.446;8.666;2024-02-21T06:42:07;9.50;;;3.92;;
74894;SDS011;63447;49.446;8.666;2024-02-21T06:44:33;11.68;;;4.53;;
74894;SDS011;63447;49.446;8.666;2024-02-21T06:47:05;11.70;;;3.70;;
74894;SDS011;63447;49.446;8.666;2024-02-21T06:49:30;11.00;;;3.75;;
74894;SDS011;63447;49.446;8.666;2024-02-21T06:51:56;12.80;;;4.00;;
74894;SDS011;63447;49.446;8.666;2024-02-21T06:54:23;10.90;;;4.40;;
74894;SDS011;63447;49.446;8.666;2024-02-21T06:56:49;14.03;;;4.20;;
74894;SDS011;63447;49.446;8.666;2024-02-21T06:59:16;10.50;;;3.60;;
74894;SDS011;63447;49.446;8.666;2024-02-21T07:01:53;14.27;;;3.90;;
74894;SDS011;63447;49.446;8.666;2024-02-21T07:04:21;8.75;;;3.78;;
74894;SDS011;63447;49.446;8.666;2024-02-21T07:06:46;11.33;;;4.17;;
74894;SDS011;63447;49.446;8.666;2024-02-21T07:09:12;12.10;;;4.00;;
74894;SDS011;63447;49.446;8.666;2024-02-21T07:11:39;12.07;;;4.83;;
74894;SDS011;63447;49.446;8.666;2024-02-21T07:14:05;11.05;;;3.63;;
74894;SDS011;63447;49.446;8.666;2024-02-21T07:16:30;14.10;;;5.57;;
74894;SDS011;63447;49.446;8.666;2024-02-21T07:18:57;11.73;;;4.00;;
74894;SDS011;63447;49.446;8.666;2024-02-21T07:21:23;8.90;;;3.63;;
74894;SDS011;63447;49.446;8.666;2024-02-21T07:23:48;12.83;;;4.40;;
74894;SDS011;63447;49.446;8.666;2024-02-21T07:26:13;10.07;;;3.70;;
74894;SDS011;63447;49.446;8.666;2024-02-21T07:28:41;10.07;;;4.07;;
74894;SDS011;63447;49.446;8.666;2024-02-21T07:31:06;10.40;;;3.63;;
74894;SDS011;63447;49.446;8.666;2024-02-21T07:33:31;9.13;;;3.50;;
74894;SDS011;63447;49.446;8.666;2024-02-21T07:36:05;11.10;;;3.70;;
74894;SDS011;63447;49.446;8.666;2024-02-21T07:38:31;12.45;;;3.83;;
74894;SDS011;63447;49.446;8.666;2024-02-21T07:40:56;12.45;;;3.80;;
74894;SDS011;63447;49.446;8.666;2024-02-21T07:43:24;12.00;;;4.27;;
74894;SDS011;63447;49.446;8.666;2024-02-21T07:45:51;10.60;;;3.92;;
74894;SDS011;63447;49.446;8.666;2024-02-21T07:48:18;14.15;;;5.43;;
74894;SDS011;63447;49.446;8.666;2024-02-21T07:50:44;10.38;;;3.53;;
74894;SDS011;63447;49.446;8.666;2024-02-21T07:53:09;10.23;;;3.25;;
74894;SDS011;63447;49.446;8.666;2024-02-21T07:55:34;9.35;;;4.05;;
74894;SDS011;63447;49.446;8.666;2024-02-21T07:58:02;10.25;;;3.97;;
74894;SDS011;63447;49.446;8.666;2024-02-21T08:00:27;12.02;;;3.97;;
74894;SDS011;63447;49.446;8.666;2024-02-21T08:02:53;12.13;;;3.70;;
74894;SDS011;63447;49.446;8.666;2024-02-21T08:07:43;10.63;;;3.70;;
74894;SDS011;63447;49.446;8.666;2024-02-21T08:10:09;12.40;;;3.85;;
74894;SDS011;63447;49.446;8.666;2024-02-21T08:12:34;15.35;;;4.28;;
74894;SDS011;63447;49.446;8.666;2024-02-21T08:15:00;9.38;;;3.47;;
74894;SDS011;63447;49.446;8.666;2024-02-21T08:17:28;12.98;;;3.85;;
74894;SDS011;63447;49.446;8.666;2024-02-21T08:19:53;15.65;;;6.40;;
74894;SDS011;63447;49.446;8.666;2024-02-21T08:22:19;11.30;;;3.70;;
74894;SDS011;63447;49.446;8.666;2024-02-21T08:24:44;11.20;;;3.85;;
74894;SDS011;63447;49.446;8.666;2024-02-21T08:27:12;9.83;;;3.80;;
74894;SDS011;63447;49.446;8.666;2024-02-21T08:29:40;9.38;;;3.78;;
74894;SDS011;63447;49.446;8.666;2024-02-21T08:32:05;9.83;;;4.20;;
74894;SDS011;63447;49.446;8.666;2024-02-21T08:34:31;11.95;;;3.85;;
74894;SDS011;63447;49.446;8.666;2024-02-21T08:36:59;9.52;;;3.50;;
74894;SDS011;63447;49.446;8.666;2024-02-21T08:39:24;11.27;;;4.40;;
74894;SDS011;63447;49.446;8.666;2024-02-21T08:41:53;13.27;;;3.78;;
74894;SDS011;63447;49.446;8.666;2024-02-21T08:44:19;8.35;;;3.88;;
74894;SDS011;63447;49.446;8.666;2024-02-21T08:46:44;13.38;;;3.92;;
74894;SDS011;63447;49.446;8.666;2024-02-21T08:49:12;11.18;;;4.05;;
74894;SDS011;63447;49.446;8.666;2024-02-21T08:51:38;12.05;;;4.65;;
74894;SDS011;63447;49.446;8.666;2024-02-21T08:54:08;16.45;;;4.85;;
74894;SDS011;63447;49.446;8.666;2024-02-21T08:56:33;11.20;;;3.75;;
74894;SDS011;63447;49.446;8.666;2024-02-21T08:58:59;10.40;;;3.83;;
74894;SDS011;63447;49.446;8.666;2024-02-21T09:01:26;11.77;;;4.00;;
74894;SDS011;63447;49.446;8.666;2024-02-21T09:03:52;10.38;;;3.78;;
74894;SDS011;63447;49.446;8.666;2024-02-21T09:06:21;10.88;;;3.53;;
74894;SDS011;63447;49.446;8.666;2024-02-21T09:08:49;10.60;;;4.18;;
74894;SDS011;63447;49.446;8.666;2024-02-21T09:11:14;11.67;;;3.70;;
74894;SDS011;63447;49.446;8.666;2024-02-21T09:13:39;12.18;;;3.92;;
74894;SDS011;63447;49.446;8.666;2024-02-21T09:16:05;12.38;;;5.70;;
74894;SDS011;63447;49.446;8.666;2024-02-21T09:18:31;9.95;;;3.78;;
74894;SDS011;63447;49.446;8.666;2024-02-21T09:20:56;8.65;;;3.95;;
74894;SDS011;63447;49.446;8.666;2024-02-21T09:23:25;11.43;;;4.00;;
74894;SDS011;63447;49.446;8.666;2024-02-21T09:25:50;12.02;;;3.90;;
74894;SDS011;63447;49.446;8.666;2024-02-21T09:28:16;12.88;;;4.28;;
74894;SDS011;63447;49.446;8.666;2024-02-21T09:30:41;11.37;;;3.60;;
74894;SDS011;63447;49.446;8.666;2024-02-21T09:33:06;10.97;;;3.80;;
74894;SDS011;63447;49.446;8.666;2024-02-21T09:35:34;8.40;;;3.28;;
74894;SDS011;63447;49.446;8.666;2024-02-21T09:38:00;9.65;;;3.70;;
74894;SDS011;63447;49.446;8.666;2024-02-21T09:40:25;7.90;;;2.90;;
74894;SDS011;63447;49.446;8.666;2024-02-21T09:42:54;11.75;;;3.40;;
74894;SDS011;63447;49.446;8.666;2024-02-21T09:50:38;12.23;;;3.60;;
74894;SDS011;63447;49.446;8.666;2024-02-21T09:53:08;9.57;;;3.70;;
74894;SDS011;63447;49.446;8.666;2024-02-21T09:55:36;8.65;;;3.28;;
74894;SDS011;63447;49.446;8.666;2024-02-21T09:58:05;8.38;;;2.88;;
74894;SDS011;63447;49.446;8.666;2024-02-21T10:00:30;11.75;;;3.22;;
74894;SDS011;63447;49.446;8.666;2024-02-21T10:02:55;10.43;;;2.90;;
74894;SDS011;63447;49.446;8.666;2024-02-21T10:05:21;14.93;;;3.70;;
74894;SDS011;63447;49.446;8.666;2024-02-21T10:07:47;11.55;;;4.53;;
74894;SDS011;63447;49.446;8.666;2024-02-21T10:10:14;13.95;;;3.63;;
74894;SDS011;63447;49.446;8.666;2024-02-21T10:12:48;11.55;;;3.20;;
74894;SDS011;63447;49.446;8.666;2024-02-21T10:15:19;10.25;;;3.10;;
74894;SDS011;63447;49.446;8.666;2024-02-21T10:18:00;8.20;;;2.80;;
74894;SDS011;63447;49.446;8.666;2024-02-21T10:20:28;10.55;;;3.17;;
74894;SDS011;63447;49.446;8.666;2024-02-21T10:23:00;10.73;;;3.38;;
74894;SDS011;63447;49.446;8.666;2024-02-21T10:25:33;16.55;;;3.92;;
74894;SDS011;63447;49.446;8.666;2024-02-21T10:27:59;11.38;;;3.38;;
74894;SDS011;63447;49.446;8.666;2024-02-21T10:30:27;8.93;;;3.20;;
74894;SDS011;63447;49.446;8.666;2024-02-21T10:32:52;10.48;;;3.65;;
74894;SDS011;63447;49.446;8.666;2024-02-21T10:35:27;11.40;;;3.33;;
74894;SDS011;63447;49.446;8.666;2024-02-21T10:37:55;7.20;;;3.10;;
74894;SDS011;63447;49.446;8.666;2024-02-21T10:40:27;11.05;;;3.20;;
74894;SDS011;63447;49.446;8.666;2024-02-21T10:43:01;9.00;;;3.08;;
74894;SDS011;63447;49.446;8.666;2024-02-21T10:54:13;11.02;;;3.15;;
74894;SDS011;63447;49.446;8.666;2024-02-21T10:56:41;12.13;;;3.30;;
74894;SDS011;63447;49.446;8.666;2024-02-21T10:59:09;9.00;;;2.60;;
74894;SDS011;63447;49.446;8.666;2024-02-21T11:01:40;6.95;;;2.83;;
74894;SDS011;63447;49.446;8.666;2024-02-21T11:04:06;7.37;;;2.50;;
74894;SDS011;63447;49.446;8.666;2024-02-21T11:06:33;10.57;;;2.78;;
74894;SDS011;63447;49.446;8.666;2024-02-21T11:11:33;9.52;;;2.80;;
74894;SDS011;63447;49.446;8.666;2024-02-21T11:14:06;11.52;;;4.22;;
74894;SDS011;63447;49.446;8.666;2024-02-21T11:16:35;8.73;;;2.70;;
74894;SDS011;63447;49.446;8.666;2024-02-21T11:19:09;7.43;;;2.30;;
74894;SDS011;63447;49.446;8.666;2024-02-21T11:21:36;12.27;;;4.20;;
74894;SDS011;63447;49.446;8.666;2024-02-21T11:24:06;24.60;;;9.65;;
74894;SDS011;63447;49.446;8.666;2024-02-21T11:26:32;10.55;;;4.90;;
74894;SDS011;63447;49.446;8.666;2024-02-21T11:28:58;11.95;;;4.63;;
74894;SDS011;63447;49.446;8.666;2024-02-21T11:31:25;8.45;;;2.95;;
74894;SDS011;63447;49.446;8.666;2024-02-21T11:33:54;8.73;;;2.80;;
74894;SDS011;63447;49.446;8.666;2024-02-21T11:36:26;9.05;;;3.60;;
74894;SDS011;63447;49.446;8.666;2024-02-21T11:38:52;7.78;;;2.35;;
74894;SDS011;63447;49.446;8.666;2024-02-21T11:41:29;9.20;;;2.88;;
74894;SDS011;63447;49.446;8.666;2024-02-21T11:43:54;7.53;;;2.28;;
74894;SDS011;63447;49.446;8.666;2024-02-21T11:46:20;7.22;;;2.00;;
74894;SDS011;63447;49.446;8.666;2024-02-21T11:48:48;12.32;;;2.78;;
74894;SDS011;63447;49.446;8.666;2024-02-21T11:51:24;8.38;;;2.33;;
74894;SDS011;63447;49.446;8.666;2024-02-21T11:53:52;13.52;;;4.30;;
74894;SDS011;63447;49.446;8.666;2024-02-21T11:56:18;10.77;;;3.72;;
74894;SDS011;63447;49.446;8.666;2024-02-21T11:58:47;9.63;;;3.10;;
74894;SDS011;63447;49.446;8.666;2024-02-21T12:01:15;6.78;;;1.98;;
74894;SDS011;63447;49.446;8.666;2024-02-21T12:03:42;7.57;;;2.05;;
74894;SDS011;63447;49.446;8.666;2024-02-21T12:06:07;9.57;;;2.50;;
74894;SDS011;63447;49.446;8.666;2024-02-21T12:08:42;7.73;;;2.47;;
74894;SDS011;63447;49.446;8.666;2024-02-21T12:11:21;6.80;;;2.10;;
74894;SDS011;63447;49.446;8.666;2024-02-21T12:14:00;6.43;;;1.65;;
74894;SDS011;63447;49.446;8.666;2024-02-21T12:16:32;7.78;;;1.83;;
74894;SDS011;63447;49.446;8.666;2024-02-21T12:18:58;12.35;;;2.70;;
74894;SDS011;63447;49.446;8.666;2024-02-21T12:21:25;6.85;;;2.13;;
74894;SDS011;63447;49.446;8.666;2024-02-21T12:23:58;9.93;;;1.80;;
74894;SDS011;63447;49.446;8.666;2024-02-21T12:26:36;9.93;;;3.58;;
74894;SDS011;63447;49.446;8.666;2024-02-21T12:29:02;7.68;;;2.80;;
74894;SDS011;63447;49.446;8.666;2024-02-21T12:31:27;7.50;;;2.20;;
74894;SDS011;63447;49.446;8.666;2024-02-21T12:33:53;7.43;;;2.50;;
74894;SDS011;63447;49.446;8.666;2024-02-21T12:36:21;7.78;;;2.08;;
74894;SDS011;63447;49.446;8.666;2024-02-21T12:38:46;6.75;;;2.38;;
74894;SDS011;63447;49.446;8.666;2024-02-21T12:41:13;10.75;;;2.20;;
74894;SDS011;63447;49.446;8.666;2024-02-21T12:43:39;9.75;;;2.50;;
74894;SDS011;63447;49.446;8.666;2024-02-21T12:46:04;11.57;;;3.87;;
74894;SDS011;63447;49.446;8.666;2024-02-21T12:48:32;9.77;;;3.15;;
74894;SDS011;63447;49.446;8.666;2024-02-21T12:50:58;11.30;;;3.35;;
74894;SDS011;63447;49.446;8.666;2024-02-21T12:53:23;9.27;;;2.35;;
74894;SDS011;63447;49.446;8.666;2024-02-21T12:55:49;7.95;;;1.90;;
74894;SDS011;63447;49.446;8.666;2024-02-21T12:58:18;7.90;;;2.05;;
74894;SDS011;63447;49.446;8.666;2024-02-21T13:00:43;11.13;;;2.70;;
74894;SDS011;63447;49.446;8.666;2024-02-21T13:03:11;8.25;;;2.17;;
74894;SDS011;63447;49.446;8.666;2024-02-21T13:05:37;7.20;;;2.05;;
74894;SDS011;63447;49.446;8.666;2024-02-21T13:08:08;14.95;;;2.75;;
74894;SDS011;63447;49.446;8.666;2024-02-21T13:10:34;7.78;;;2.22;;
74894;SDS011;63447;49.446;8.666;2024-02-21T13:13:02;7.28;;;1.90;;
74894;SDS011;63447;49.446;8.666;2024-02-21T13:15:28;7.15;;;2.00;;
74894;SDS011;63447;49.446;8.666;2024-02-21T13:17:56;6.45;;;2.15;;
74894;SDS011;63447;49.446;8.666;2024-02-21T13:20:25;7.78;;;2.10;;
74894;SDS011;63447;49.446;8.666;2024-02-21T13:22:53;9.75;;;2.40;;
74894;SDS011;63447;49.446;8.666;2024-02-21T13:25:21;8.57;;;2.70;;
74894;SDS011;63447;49.446;8.666;2024-02-21T13:27:47;6.75;;;2.08;;
74894;SDS011;63447;49.446;8.666;2024-02-21T13:30:13;9.63;;;2.20;;
74894;SDS011;63447;49.446;8.666;2024-02-21T13:32:41;9.35;;;2.30;;
74894;SDS011;63447;49.446;8.666;2024-02-21T13:35:07;5.70;;;2.03;;
74894;SDS011;63447;49.446;8.666;2024-02-21T13:37:36;6.80;;;2.35;;
74894;SDS011;63447;49.446;8.666;2024-02-21T13:40:04;9.90;;;2.80;;
74894;SDS011;63447;49.446;8.666;2024-02-21T13:42:30;6.82;;;2.20;;
74894;SDS011;63447;49.446;8.666;2024-02-21T13:44:56;9.02;;;2.45;;
74894;SDS011;63447;49.446;8.666;2024-02-21T13:47:21;11.02;;;3.13;;
74894;SDS011;63447;49.446;8.666;2024-02-21T13:49:47;5.70;;;1.85;;
74894;SDS011;63447;49.446;8.666;2024-02-21T13:52:14;6.43;;;1.90;;
74894;SDS011;63447;49.446;8.666;2024-02-21T13:54:40;7.78;;;1.85;;
74894;SDS011;63447;49.446;8.666;2024-02-21T13:57:08;6.35;;;1.80;;
74894;SDS011;63447;49.446;8.666;2024-02-21T13:59:34;6.70;;;2.25;;
74894;SDS011;63447;49.446;8.666;2024-02-21T14:01:59;8.02;;;2.05;;
74894;SDS011;63447;49.446;8.666;2024-02-21T14:04:24;7.45;;;2.05;;
74894;SDS011;63447;49.446;8.666;2024-02-21T14:06:50;8.43;;;1.92;;
74894;SDS011;63447;49.446;8.666;2024-02-21T14:09:15;6.65;;;1.98;;
74894;SDS011;63447;49.446;8.666;2024-02-21T14:11:41;9.95;;;2.28;;
74894;SDS011;63447;49.446;8.666;2024-02-21T14:14:07;8.07;;;2.03;;
74894;SDS011;63447;49.446;8.666;2024-02-21T14:16:32;6.25;;;1.88;;
74894;SDS011;63447;49.446;8.666;2024-02-21T14:19:00;7.20;;;1.70;;
74894;SDS011;63447;49.446;8.666;2024-02-21T14:21:26;7.28;;;2.00;;
74894;SDS011;63447;49.446;8.666;2024-02-21T14:23:53;7.10;;;1.67;;
74894;SDS011;63447;49.446;8.666;2024-02-21T14:26:22;6.20;;;1.80;;
74894;SDS011;63447;49.446;8.666;2024-02-21T14:28:47;6.35;;;2.22;;
74894;SDS011;63447;49.446;8.666;2024-02-21T14:31:12;8.40;;;1.80;;
74894;SDS011;63447;49.446;8.666;2024-02-21T14:33:38;8.98;;;2.40;;
74894;SDS011;63447;49.446;8.666;2024-02-21T14:36:06;7.72;;;1.80;;
74894;SDS011;63447;49.446;8.666;2024-02-21T14:38:35;6.35;;;2.70;;
74894;SDS011;63447;49.446;8.666;2024-02-21T14:41:00;9.03;;;2.93;;
74894;SDS011;63447;49.446;8.666;2024-02-21T14:43:25;10.95;;;2.10;;
74894;SDS011;63447;49.446;8.666;2024-02-21T14:45:51;9.32;;;2.67;;
74894;SDS011;63447;49.446;8.666;2024-02-21T14:48:17;8.68;;;3.03;;
74894;SDS011;63447;49.446;8.666;2024-02-21T14:50:42;9.15;;;2.50;;
74894;SDS011;63447;49.446;8.666;2024-02-21T14:53:07;7.88;;;2.40;;
74894;SDS011;63447;49.446;8.666;2024-02-21T14:55:33;8.50;;;1.73;;